createdAt,value
2018-08-27T00:00:20.488Z,68.76
2018-08-27T00:01:00.975Z,68.76
2018-08-27T00:01:41.477Z,68.37
2018-08-27T00:02:21.952Z,67.8
2018-08-27T00:03:02.442Z,68.18
2018-08-27T00:03:42.968Z,67.99
2018-08-27T00:04:23.403Z,67.9
2018-08-27T00:05:03.887Z,68.18
2018-08-27T00:05:44.358Z,67.99
2018-08-27T00:06:24.878Z,67.99
2018-08-27T00:07:05.393Z,67.8
2018-08-27T00:07:45.846Z,67.61
2018-08-27T00:08:26.326Z,67.99
2018-08-27T00:09:06.789Z,68.18
2018-08-27T00:09:47.381Z,67.99
2018-08-27T00:10:27.874Z,68.76
2018-08-27T00:11:08.338Z,68.24
2018-08-27T00:11:48.852Z,68.66
2018-08-27T00:12:29.370Z,68.47
2018-08-27T00:13:09.861Z,68.28
2018-08-27T00:13:50.381Z,68.53
2018-08-27T00:14:30.856Z,68.08
2018-08-27T00:15:11.334Z,68.28
2018-08-27T00:15:51.858Z,68.18
2018-08-27T00:16:32.363Z,68.28
2018-08-27T00:17:12.926Z,68.28
2018-08-27T00:17:53.429Z,67.9
2018-08-27T00:18:33.914Z,67.99
2018-08-27T00:19:14.432Z,67.8
2018-08-27T00:19:54.979Z,67.9
2018-08-27T00:20:35.487Z,67.99
2018-08-27T00:21:15.976Z,67.9
2018-08-27T00:21:56.495Z,68.08
2018-08-27T00:22:36.963Z,67.61
2018-08-27T00:23:17.486Z,67.51
2018-08-27T00:23:58.006Z,67.7
2018-08-27T00:24:38.499Z,67.99
2018-08-27T00:25:18.969Z,66.84
2018-08-27T00:25:59.480Z,67.03
2018-08-27T00:26:39.970Z,67.03
2018-08-27T00:27:20.449Z,66.55
2018-08-27T00:28:00.959Z,66.64
2018-08-27T00:28:41.452Z,66.36
2018-08-27T00:29:21.919Z,66.46
2018-08-27T00:30:02.498Z,66.64
2018-08-27T00:30:42.989Z,66.55
2018-08-27T00:31:23.498Z,66.55
2018-08-27T00:32:04.003Z,66.55
2018-08-27T00:32:44.504Z,66.74
2018-08-27T00:33:25.012Z,66.64
2018-08-27T00:34:05.505Z,66.36
2018-08-27T00:34:45.973Z,66.26
2018-08-27T00:35:26.472Z,66.74
2018-08-27T00:36:06.968Z,66.55
2018-08-27T00:36:47.464Z,66.36
2018-08-27T00:37:28.001Z,66.16
2018-08-27T00:38:08.473Z,66.16
2018-08-27T00:38:49.066Z,66.26
2018-08-27T00:39:29.515Z,66.16
2018-08-27T00:40:10.012Z,66.74
2018-08-27T00:40:50.520Z,66.36
2018-08-27T00:41:30.974Z,65.97
2018-08-27T00:42:11.470Z,66.26
2018-08-27T00:42:51.924Z,66.36
2018-08-27T00:43:32.417Z,66.64
2018-08-27T00:44:13.004Z,66.74
2018-08-27T00:44:53.466Z,66.55
2018-08-27T00:45:33.969Z,67.03
2018-08-27T00:46:14.450Z,66.93
2018-08-27T00:46:54.930Z,66.84
2018-08-27T00:47:35.454Z,67.03
2018-08-27T00:48:15.941Z,66.9
2018-08-27T00:48:56.413Z,66.55
2018-08-27T00:49:36.917Z,66.8
2018-08-27T00:50:17.416Z,66.8
2018-08-27T00:50:57.900Z,67
2018-08-27T00:51:38.447Z,66.93
2018-08-27T00:52:18.866Z,66.8
2018-08-27T00:52:59.344Z,66.84
2018-08-27T00:53:39.912Z,67.29
2018-08-27T00:54:20.377Z,67.76
2018-08-27T00:55:00.911Z,67.57
2018-08-27T00:55:41.398Z,67.57
2018-08-27T00:56:21.863Z,67.67
2018-08-27T00:57:02.377Z,67.86
2018-08-27T00:57:42.830Z,67.96
2018-08-27T00:58:23.280Z,68.08
2018-08-27T00:59:03.777Z,68.34
2018-08-27T00:59:44.308Z,67.86
2018-08-27T01:00:24.792Z,68.34
2018-08-27T01:01:05.269Z,67.99
2018-08-27T01:01:45.783Z,67.86
2018-08-27T01:02:26.273Z,68.34
2018-08-27T01:03:06.812Z,68.91
2018-08-27T01:03:47.286Z,68.24
2018-08-27T01:04:27.814Z,68.44
2018-08-27T01:05:08.279Z,68.24
2018-08-27T01:05:48.783Z,68.24
2018-08-27T01:06:29.292Z,68.91
2018-08-27T01:07:09.744Z,68.63
2018-08-27T01:07:50.279Z,69.01
2018-08-27T01:08:30.697Z,69.01
2018-08-27T01:09:11.186Z,68.73
2018-08-27T01:09:51.700Z,69.4
2018-08-27T01:10:32.184Z,69.11
2018-08-27T01:11:12.604Z,68.76
2018-08-27T01:11:53.119Z,68.66
2018-08-27T01:12:33.650Z,69.01
2018-08-27T01:13:14.125Z,68.91
2018-08-27T01:13:54.579Z,68.91
2018-08-27T01:14:35.093Z,68.85
2018-08-27T01:15:15.600Z,69.05
2018-08-27T01:15:56.147Z,68.76
2018-08-27T01:16:36.610Z,69.05
2018-08-27T01:17:17.121Z,68.57
2018-08-27T01:17:57.616Z,68.47
2018-08-27T01:18:38.122Z,68.95
2018-08-27T01:19:18.604Z,68.73
2018-08-27T01:19:59.110Z,68.66
2018-08-27T01:20:39.564Z,69.24
2018-08-27T01:21:20.045Z,69.34
2018-08-27T01:22:00.601Z,69.14
2018-08-27T01:22:41.228Z,68.76
2018-08-27T01:23:21.593Z,69.24
2018-08-27T01:24:02.111Z,69.01
2018-08-27T01:24:42.582Z,69.43
2018-08-27T01:25:23.065Z,69.81
2018-08-27T01:26:03.577Z,69.34
2018-08-27T01:26:44.138Z,69.62
2018-08-27T01:27:24.535Z,69.53
2018-08-27T01:28:05.055Z,69.62
2018-08-27T01:28:45.543Z,69.62
2018-08-27T01:29:26.037Z,69.62
2018-08-27T01:30:06.477Z,69.78
2018-08-27T01:30:47.010Z,69.43
2018-08-27T01:31:27.484Z,69.81
2018-08-27T01:32:07.993Z,69.53
2018-08-27T01:32:48.469Z,69.72
2018-08-27T01:33:28.987Z,69.72
2018-08-27T01:34:09.395Z,69.72
2018-08-27T01:34:49.942Z,69.59
2018-08-27T01:35:30.469Z,69.91
2018-08-27T01:36:10.932Z,69.72
2018-08-27T01:36:51.423Z,70.1
2018-08-27T01:37:31.897Z,69.72
2018-08-27T01:38:12.423Z,70.2
2018-08-27T01:38:52.862Z,69.81
2018-08-27T01:39:33.343Z,69.91
2018-08-27T01:40:13.871Z,70.01
2018-08-27T01:40:54.321Z,69.72
2018-08-27T01:41:34.822Z,69.34
2018-08-27T01:42:15.322Z,69.24
2018-08-27T01:42:55.826Z,68.57
2018-08-27T01:43:36.279Z,68.28
2018-08-27T01:44:16.768Z,68.47
2018-08-27T01:44:57.255Z,68.47
2018-08-27T01:45:37.790Z,68.28
2018-08-27T01:46:18.221Z,68.28
2018-08-27T01:46:58.727Z,68.08
2018-08-27T01:47:39.280Z,68.47
2018-08-27T01:48:19.774Z,68.28
2018-08-27T01:49:00.277Z,67.8
2018-08-27T01:49:40.749Z,67.9
2018-08-27T01:50:21.322Z,68.08
2018-08-27T01:51:01.816Z,67.9
2018-08-27T01:51:42.354Z,68.08
2018-08-27T01:52:22.769Z,67.9
2018-08-27T01:53:03.312Z,67.8
2018-08-27T01:53:43.780Z,67.8
2018-08-27T01:54:24.283Z,68.08
2018-08-27T01:55:04.769Z,68.28
2018-08-27T01:55:45.245Z,67.99
2018-08-27T01:56:25.761Z,67.61
2018-08-27T01:57:06.246Z,67.7
2018-08-27T01:57:46.764Z,68.18
2018-08-27T01:58:27.260Z,67.8
2018-08-27T01:59:07.853Z,68.08
2018-08-27T01:59:48.254Z,67.99
2018-08-27T02:00:28.695Z,67.9
2018-08-27T02:01:09.210Z,68.08
2018-08-27T02:01:49.725Z,68.28
2018-08-27T02:02:30.158Z,67.99
2018-08-27T02:03:10.677Z,67.7
2018-08-27T02:03:51.146Z,67.61
2018-08-27T02:04:31.668Z,67.7
2018-08-27T02:05:12.122Z,67.99
2018-08-27T02:05:52.614Z,67.9
2018-08-27T02:06:33.127Z,67.99
2018-08-27T02:07:13.596Z,68.47
2018-08-27T02:07:54.093Z,68.66
2018-08-27T02:08:34.622Z,68.47
2018-08-27T02:09:15.106Z,68.28
2018-08-27T02:09:55.602Z,68.37
2018-08-27T02:10:36.102Z,69.14
2018-08-27T02:11:16.615Z,68.76
2018-08-27T02:11:57.094Z,68.28
2018-08-27T02:12:37.589Z,68.08
2018-08-27T02:13:18.065Z,68.47
2018-08-27T02:13:58.527Z,68.08
2018-08-27T02:14:39.038Z,67.9
2018-08-27T02:15:19.536Z,67.99
2018-08-27T02:16:00.046Z,68.18
2018-08-27T02:16:40.534Z,68.37
2018-08-27T02:17:20.999Z,67.9
2018-08-27T02:18:01.508Z,67.9
2018-08-27T02:18:41.985Z,67.99
2018-08-27T02:19:22.484Z,68.18
2018-08-27T02:20:02.950Z,68.66
2018-08-27T02:20:43.426Z,68.18
2018-08-27T02:21:23.934Z,68.47
2018-08-27T02:22:04.494Z,68.28
2018-08-27T02:22:44.976Z,68.18
2018-08-27T02:23:25.470Z,68.28
2018-08-27T02:24:05.984Z,68.28
2018-08-27T02:24:46.433Z,68.18
2018-08-27T02:25:26.952Z,68.28
2018-08-27T02:26:07.436Z,67.99
2018-08-27T02:26:48.803Z,68.08
2018-08-27T02:27:29.293Z,68.08
2018-08-27T02:28:09.769Z,68.76
2018-08-27T02:28:50.326Z,68.18
2018-08-27T02:29:30.787Z,68.18
2018-08-27T02:30:11.287Z,68.18
2018-08-27T02:30:51.715Z,67.99
2018-08-27T02:31:32.243Z,67.99
2018-08-27T02:32:12.759Z,67.99
2018-08-27T02:32:53.243Z,67.9
2018-08-27T02:33:33.744Z,68.08
2018-08-27T02:34:14.349Z,68.85
2018-08-27T02:34:54.893Z,68.28
2018-08-27T02:35:35.321Z,68.37
2018-08-27T02:36:15.835Z,68.28
2018-08-27T02:36:56.340Z,68.28
2018-08-27T02:37:36.829Z,68.37
2018-08-27T02:38:17.303Z,68.08
2018-08-27T02:38:57.798Z,68.08
2018-08-27T02:39:38.307Z,68.57
2018-08-27T02:40:18.803Z,68.37
2018-08-27T02:40:59.286Z,68.57
2018-08-27T02:41:39.790Z,68.47
2018-08-27T02:42:20.296Z,68.18
2018-08-27T02:43:00.855Z,68.28
2018-08-27T02:43:41.312Z,67.8
2018-08-27T02:44:21.779Z,68.66
2018-08-27T02:45:02.232Z,68.28
2018-08-27T02:45:42.742Z,68.28
2018-08-27T02:46:23.218Z,67.99
2018-08-27T02:47:03.730Z,68.18
2018-08-27T02:47:44.234Z,68.37
2018-08-27T02:48:24.734Z,68.57
2018-08-27T02:49:05.266Z,68.76
2018-08-27T02:49:45.735Z,68.76
2018-08-27T02:50:26.212Z,68.47
2018-08-27T02:51:06.754Z,68.28
2018-08-27T02:51:47.253Z,68.28
2018-08-27T02:52:27.776Z,68.28
2018-08-27T02:53:08.249Z,68.37
2018-08-27T02:53:48.728Z,68.18
2018-08-27T02:54:29.168Z,68.37
2018-08-27T02:55:09.665Z,68.28
2018-08-27T02:55:50.144Z,68.66
2018-08-27T02:56:30.769Z,68.47
2018-08-27T02:57:11.206Z,68.28
2018-08-27T02:57:51.724Z,68.37
2018-08-27T02:58:32.203Z,68.95
2018-08-27T02:59:12.683Z,68.37
2018-08-27T02:59:53.165Z,68.57
2018-08-27T03:00:33.665Z,68.18
2018-08-27T03:01:14.163Z,68.28
2018-08-27T03:01:54.646Z,68.28
2018-08-27T03:02:35.191Z,68.08
2018-08-27T03:03:15.646Z,68.47
2018-08-27T03:03:56.113Z,68.37
2018-08-27T03:04:36.623Z,68.37
2018-08-27T03:05:17.142Z,68.47
2018-08-27T03:05:57.628Z,68.95
2018-08-27T03:06:38.062Z,69.05
2018-08-27T03:07:18.561Z,68.95
2018-08-27T03:07:59.067Z,68.47
2018-08-27T03:08:39.546Z,68.95
2018-08-27T03:09:20.078Z,68.37
2018-08-27T03:10:00.546Z,68.47
2018-08-27T03:10:41.083Z,68.47
2018-08-27T03:11:21.515Z,68.08
2018-08-27T03:12:01.987Z,68.18
2018-08-27T03:12:42.502Z,68.28
2018-08-27T03:13:22.950Z,67.51
2018-08-27T03:14:03.492Z,67.8
2018-08-27T03:14:43.943Z,67.51
2018-08-27T03:15:24.441Z,67.61
2018-08-27T03:16:04.945Z,67.51
2018-08-27T03:16:45.372Z,67.41
2018-08-27T03:17:25.878Z,67.03
2018-08-27T03:18:06.392Z,67.32
2018-08-27T03:18:46.850Z,66.55
2018-08-27T03:19:27.348Z,65.97
2018-08-27T03:20:07.843Z,66.26
2018-08-27T03:20:48.310Z,66.36
2018-08-27T03:21:28.838Z,66.36
2018-08-27T03:22:09.308Z,66.74
2018-08-27T03:22:49.856Z,66.36
2018-08-27T03:23:30.341Z,66.55
2018-08-27T03:24:10.908Z,66.64
2018-08-27T03:24:51.422Z,66.46
2018-08-27T03:25:31.874Z,66.55
2018-08-27T03:26:12.422Z,66.16
2018-08-27T03:26:52.880Z,66.26
2018-08-27T03:27:33.384Z,66.26
2018-08-27T03:28:13.823Z,65.88
2018-08-27T03:28:54.302Z,66.16
2018-08-27T03:29:34.840Z,65.72
2018-08-27T03:30:15.321Z,65.59
2018-08-27T03:30:55.777Z,66.55
2018-08-27T03:31:36.250Z,65.69
2018-08-27T03:32:16.726Z,65.69
2018-08-27T03:32:57.228Z,65.59
2018-08-27T03:33:37.728Z,65.78
2018-08-27T03:34:18.266Z,65.69
2018-08-27T03:34:58.713Z,65.97
2018-08-27T03:35:39.289Z,66.16
2018-08-27T03:36:19.807Z,66.36
2018-08-27T03:37:00.308Z,66.16
2018-08-27T03:37:40.777Z,65.88
2018-08-27T03:38:21.300Z,66.36
2018-08-27T03:39:01.761Z,66.74
2018-08-27T03:39:42.270Z,66.64
2018-08-27T03:40:22.768Z,66.74
2018-08-27T03:41:03.265Z,66.46
2018-08-27T03:41:43.761Z,66.36
2018-08-27T03:42:24.216Z,66.26
2018-08-27T03:43:04.695Z,66.93
2018-08-27T03:43:45.215Z,66.46
2018-08-27T03:44:25.745Z,66.64
2018-08-27T03:45:06.246Z,67.03
2018-08-27T03:45:46.715Z,66.55
2018-08-27T03:46:27.212Z,66.64
2018-08-27T03:47:07.699Z,66.55
2018-08-27T03:47:48.191Z,66.93
2018-08-27T03:48:28.628Z,66.93
2018-08-27T03:49:09.120Z,67.13
2018-08-27T03:49:49.561Z,67.13
2018-08-27T03:50:30.052Z,67.03
2018-08-27T03:51:10.548Z,66.93
2018-08-27T03:51:51.031Z,66.64
2018-08-27T03:52:31.547Z,67.03
2018-08-27T03:53:12.029Z,66.93
2018-08-27T03:53:52.578Z,67.03
2018-08-27T03:54:33.003Z,66.74
2018-08-27T03:55:13.469Z,66.84
2018-08-27T03:55:53.995Z,67.03
2018-08-27T03:56:34.465Z,67.13
2018-08-27T03:57:14.950Z,66.93
2018-08-27T03:57:55.472Z,67.03
2018-08-27T03:58:36.035Z,66.93
2018-08-27T03:59:16.449Z,66.93
2018-08-27T03:59:57.029Z,66.84
2018-08-27T04:00:37.449Z,67.8
2018-08-27T04:01:17.930Z,67.7
2018-08-27T04:01:58.412Z,67.7
2018-08-27T04:02:38.926Z,67.8
2018-08-27T04:03:19.477Z,67.7
2018-08-27T04:04:00.163Z,67.99
2018-08-27T04:04:40.986Z,67.61
2018-08-27T04:05:21.495Z,67.9
2018-08-27T04:06:01.928Z,68.08
2018-08-27T04:06:42.441Z,68.08
2018-08-27T04:07:22.920Z,68.37
2018-08-27T04:08:03.491Z,67.99
2018-08-27T04:08:43.935Z,68.37
2018-08-27T04:09:24.483Z,68.28
2018-08-27T04:10:05.023Z,68.08
2018-08-27T04:10:45.478Z,68.28
2018-08-27T04:11:25.949Z,68.18
2018-08-27T04:12:06.395Z,68.57
2018-08-27T04:12:46.928Z,68.47
2018-08-27T04:13:27.447Z,68.37
2018-08-27T04:14:07.913Z,68.57
2018-08-27T04:14:48.414Z,68.76
2018-08-27T04:15:28.889Z,68.85
2018-08-27T04:16:09.393Z,68.95
2018-08-27T04:16:49.874Z,69.43
2018-08-27T04:17:30.381Z,69.43
2018-08-27T04:18:10.915Z,69.43
2018-08-27T04:18:51.402Z,69.14
2018-08-27T04:19:31.883Z,69.43
2018-08-27T04:20:12.368Z,69.81
2018-08-27T04:20:52.819Z,69.34
2018-08-27T04:21:33.321Z,69.72
2018-08-27T04:22:13.819Z,69.43
2018-08-27T04:22:54.324Z,69.24
2018-08-27T04:23:34.826Z,69.53
2018-08-27T04:24:15.310Z,69.62
2018-08-27T04:24:55.815Z,69.43
2018-08-27T04:25:36.311Z,69.43
2018-08-27T04:26:16.769Z,69.34
2018-08-27T04:26:57.310Z,69.05
2018-08-27T04:27:37.760Z,68.76
2018-08-27T04:28:18.242Z,69.05
2018-08-27T04:28:58.761Z,68.95
2018-08-27T04:29:39.225Z,68.95
2018-08-27T04:30:19.700Z,68.85
2018-08-27T04:31:00.227Z,68.95
2018-08-27T04:31:40.667Z,68.76
2018-08-27T04:32:21.163Z,68.95
2018-08-27T04:33:01.683Z,69.05
2018-08-27T04:33:42.150Z,69.14
2018-08-27T04:34:22.650Z,68.66
2018-08-27T04:35:03.164Z,69.05
2018-08-27T04:35:43.615Z,68.76
2018-08-27T04:36:24.110Z,69.14
2018-08-27T04:37:04.594Z,69.43
2018-08-27T04:37:45.166Z,69.24
2018-08-27T04:38:25.611Z,69.34
2018-08-27T04:39:06.094Z,69.24
2018-08-27T04:39:46.654Z,69.72
2018-08-27T04:40:27.131Z,69.53
2018-08-27T04:41:07.593Z,69.53
2018-08-27T04:41:48.122Z,69.46
2018-08-27T04:42:28.619Z,69.75
2018-08-27T04:43:09.106Z,69.85
2018-08-27T04:43:49.581Z,69.85
2018-08-27T04:44:30.038Z,70.23
2018-08-27T04:45:10.576Z,70.39
2018-08-27T04:45:51.123Z,70.52
2018-08-27T04:46:31.643Z,70.2
2018-08-27T04:47:12.140Z,70.29
2018-08-27T04:47:52.613Z,69.91
2018-08-27T04:48:33.122Z,70.01
2018-08-27T04:49:13.572Z,69.95
2018-08-27T04:51:09.036Z,70.1
2018-08-27T04:51:49.556Z,70.49
2018-08-27T04:52:30.044Z,69.91
2018-08-27T04:53:10.581Z,69.81
2018-08-27T04:53:51.042Z,70.39
2018-08-27T04:54:31.525Z,70.29
2018-08-27T04:55:12.105Z,70.58
2018-08-27T04:55:52.601Z,70.39
2018-08-27T04:56:33.118Z,70.39
2018-08-27T04:57:13.591Z,70.58
2018-08-27T04:57:54.083Z,69.72
2018-08-27T04:58:34.598Z,69.62
2018-08-27T04:59:15.076Z,69.62
2018-08-27T04:59:55.484Z,69.46
2018-08-27T05:00:35.996Z,69.62
2018-08-27T05:01:16.466Z,69.72
2018-08-27T05:01:57.035Z,69.08
2018-08-27T05:02:37.535Z,68.41
2018-08-27T05:03:17.984Z,68.02
2018-08-27T05:03:58.540Z,68.02
2018-08-27T05:04:38.942Z,67.64
2018-08-27T05:05:19.443Z,67.83
2018-08-27T05:05:59.917Z,67.74
2018-08-27T05:06:40.426Z,68.02
2018-08-27T05:07:20.897Z,68.02
2018-08-27T05:08:01.419Z,68.02
2018-08-27T05:08:41.955Z,67.93
2018-08-27T05:09:22.434Z,68.02
2018-08-27T05:10:02.897Z,68.21
2018-08-27T05:10:43.436Z,68.12
2018-08-27T05:11:23.937Z,68.02
2018-08-27T05:12:04.437Z,67.83
2018-08-27T05:12:44.937Z,68.51
2018-08-27T05:13:25.445Z,69.27
2018-08-27T05:14:05.978Z,71.58
2018-08-27T05:14:46.484Z,73.21
2018-08-27T05:15:26.992Z,72.83
2018-08-27T05:16:07.416Z,72.83
2018-08-27T05:16:47.891Z,72.16
2018-08-27T05:17:28.415Z,74.17
2018-08-27T05:18:08.916Z,75.71
2018-08-27T05:18:49.471Z,75.42
2018-08-27T05:19:29.941Z,75.52
2018-08-27T05:20:10.427Z,75.81
2018-08-27T05:20:50.911Z,76.96
2018-08-27T05:21:31.432Z,76.77
2018-08-27T05:22:11.943Z,75.62
2018-08-27T05:22:52.390Z,75.62
2018-08-27T05:23:32.935Z,76.71
2018-08-27T05:24:13.374Z,76.77
2018-08-27T05:24:53.881Z,75.84
2018-08-27T05:25:34.350Z,74.94
2018-08-27T05:26:14.885Z,75.04
2018-08-27T05:26:55.356Z,77.38
2018-08-27T05:27:35.862Z,76.81
2018-08-27T05:28:16.339Z,76.14
2018-08-27T05:28:56.863Z,78.73
2018-08-27T05:29:37.330Z,76.32
2018-08-27T05:30:17.821Z,76.32
2018-08-27T05:30:58.415Z,77.86
2018-08-27T05:31:38.825Z,76.42
2018-08-27T05:32:19.341Z,76.23
2018-08-27T05:32:59.828Z,78.63
2018-08-27T05:33:40.323Z,79.69
2018-08-27T05:34:20.814Z,77.29
2018-08-27T05:35:01.271Z,74.88
2018-08-27T05:35:41.781Z,73.35
2018-08-27T05:36:22.216Z,72.86
2018-08-27T05:37:02.777Z,74.6
2018-08-27T05:37:43.247Z,75.84
2018-08-27T05:38:23.785Z,74.88
2018-08-27T05:39:04.263Z,74.21
2018-08-27T05:39:44.773Z,71.52
2018-08-27T05:40:25.268Z,70.46
2018-08-27T05:41:05.777Z,70.84
2018-08-27T05:41:46.270Z,72.86
2018-08-27T05:42:26.811Z,73.92
2018-08-27T05:43:07.310Z,73.6
2018-08-27T05:43:47.795Z,69.08
2018-08-27T05:44:28.416Z,65.81
2018-08-27T05:45:08.975Z,66.23
2018-08-27T05:45:49.373Z,67.54
2018-08-27T05:46:29.860Z,67.54
2018-08-27T05:47:10.365Z,67.07
2018-08-27T05:47:50.970Z,68.12
2018-08-27T05:48:31.404Z,67.83
2018-08-27T05:49:11.920Z,68.06
2018-08-27T05:49:52.654Z,70.14
2018-08-27T05:50:33.215Z,71.39
2018-08-27T05:51:13.711Z,71.52
2018-08-27T05:51:54.247Z,71.58
2018-08-27T05:52:34.721Z,69.75
2018-08-27T05:53:15.216Z,70.07
2018-08-27T05:53:55.715Z,70.37
2018-08-27T05:54:36.175Z,71.23
2018-08-27T05:55:16.692Z,71.81
2018-08-27T05:55:57.282Z,71.33
2018-08-27T05:56:37.695Z,72.58
2018-08-27T05:57:18.212Z,75.56
2018-08-27T05:57:58.706Z,78.44
2018-08-27T05:58:39.214Z,80.75
2018-08-27T05:59:19.742Z,79.5
2018-08-27T06:00:00.248Z,76.52
2018-08-27T06:00:40.749Z,77.42
2018-08-27T06:01:21.328Z,79.35
2018-08-27T06:02:01.937Z,78.96
2018-08-27T06:02:42.295Z,76.26
2018-08-27T06:03:23.032Z,74.25
2018-08-27T06:04:03.509Z,75.31
2018-08-27T06:04:44.107Z,80.3
2018-08-27T06:05:24.642Z,80.11
2018-08-27T06:06:05.156Z,79.92
2018-08-27T06:06:45.658Z,80.4
2018-08-27T06:07:26.122Z,78.86
2018-08-27T06:08:06.651Z,80.4
2018-08-27T06:08:47.103Z,81.98
2018-08-27T06:09:27.590Z,85.4
2018-08-27T06:10:09.691Z,83.52
2018-08-27T06:10:49.796Z,81.88
2018-08-27T06:11:30.315Z,78.42
2018-08-27T06:12:10.772Z,76.4
2018-08-27T06:12:51.269Z,77.75
2018-08-27T06:13:31.781Z,76.78
2018-08-27T06:14:12.230Z,76.88
2018-08-27T06:14:52.721Z,77.65
2018-08-27T06:15:33.298Z,76.5
2018-08-27T06:16:13.735Z,82.65
2018-08-27T06:16:54.203Z,80.54
2018-08-27T06:17:34.700Z,81.3
2018-08-27T06:18:15.233Z,80.06
2018-08-27T06:18:55.930Z,79.1
2018-08-27T06:19:36.488Z,78.71
2018-08-27T06:20:16.981Z,80.73
2018-08-27T06:20:57.527Z,84.1
2018-08-27T06:21:37.993Z,83.14
2018-08-27T06:22:18.686Z,81.3
2018-08-27T06:22:58.995Z,77.36
2018-08-27T06:23:39.462Z,78.52
2018-08-27T06:24:20.001Z,80.44
2018-08-27T06:25:00.589Z,78.33
2018-08-27T06:25:40.910Z,78.42
2018-08-27T06:26:21.407Z,79.58
2018-08-27T06:27:02.693Z,79.77
2018-08-27T06:27:43.266Z,80.25
2018-08-27T06:28:23.682Z,81.6
2018-08-27T06:29:04.180Z,80.15
2018-08-27T06:29:44.676Z,76.59
2018-08-27T06:30:25.181Z,78.23
2018-08-27T06:31:05.651Z,77.36
2018-08-27T06:31:46.251Z,74.67
2018-08-27T06:32:26.853Z,75.34
2018-08-27T06:33:07.339Z,78.81
2018-08-27T06:33:47.826Z,76.88
2018-08-27T06:34:28.343Z,73.71
2018-08-27T06:35:08.874Z,75.15
2018-08-27T06:35:49.294Z,73.8
2018-08-27T06:36:29.826Z,74.96
2018-08-27T06:37:10.270Z,74.38
2018-08-27T06:37:50.805Z,73.46
2018-08-27T06:38:31.267Z,80.1
2018-08-27T06:39:11.764Z,78.46
2018-08-27T06:39:52.233Z,80.58
2018-08-27T06:40:32.714Z,77.01
2018-08-27T06:41:13.182Z,74.32
2018-08-27T06:41:53.729Z,78.75
2018-08-27T06:42:34.245Z,80.29
2018-08-27T06:43:14.720Z,76.63
2018-08-27T06:43:55.220Z,74.13
2018-08-27T06:44:35.796Z,75.48
2018-08-27T06:45:16.190Z,79.81
2018-08-27T06:45:56.661Z,71.53
2018-08-27T06:46:37.261Z,70.66
2018-08-27T06:47:17.623Z,71.72
2018-08-27T06:47:58.115Z,75.76
2018-08-27T06:48:38.638Z,75.67
2018-08-27T06:49:19.110Z,72.78
2018-08-27T06:49:59.621Z,74.13
2018-08-27T06:50:40.065Z,75.57
2018-08-27T06:51:20.523Z,76.63
2018-08-27T06:52:01.019Z,76.63
2018-08-27T06:52:41.538Z,76.44
2018-08-27T06:53:22.016Z,76.38
2018-08-27T06:54:02.529Z,77.15
2018-08-27T06:54:43.072Z,79.85
2018-08-27T06:55:23.582Z,74.93
2018-08-27T06:56:04.044Z,78.98
2018-08-27T06:56:44.707Z,77.73
2018-08-27T06:57:25.059Z,77.53
2018-08-27T06:58:05.573Z,81.01
2018-08-27T06:58:46.046Z,79.17
2018-08-27T06:59:26.591Z,78.34
2018-08-27T07:00:07.167Z,76.61
2018-08-27T07:00:47.666Z,76.8
2018-08-27T07:01:28.178Z,81.52
2018-08-27T07:02:08.705Z,84.12
2018-08-27T07:02:49.214Z,78.25
2018-08-27T07:03:29.684Z,81.91
2018-08-27T07:04:10.848Z,82.49
2018-08-27T07:04:51.367Z,81.24
2018-08-27T07:05:31.864Z,82.49
2018-08-27T07:06:12.369Z,80.08
2018-08-27T07:06:52.854Z,77.67
2018-08-27T07:07:33.390Z,78.25
2018-08-27T07:08:13.906Z,78.25
2018-08-27T07:08:54.372Z,80.56
2018-08-27T07:09:34.895Z,81.04
2018-08-27T07:10:15.430Z,79.6
2018-08-27T07:10:55.877Z,75.65
2018-08-27T07:11:36.378Z,76.61
2018-08-27T07:12:16.877Z,76.13
2018-08-27T07:12:57.416Z,77.34
2018-08-27T07:13:37.877Z,75.99
2018-08-27T07:14:18.440Z,75.61
2018-08-27T07:14:58.838Z,73.58
2018-08-27T07:15:39.379Z,73.78
2018-08-27T07:16:19.876Z,76.76
2018-08-27T07:17:00.340Z,76.96
2018-08-27T07:17:40.834Z,76.42
2018-08-27T07:18:21.336Z,76.9
2018-08-27T07:19:01.837Z,75.84
2018-08-27T07:19:42.277Z,76.9
2018-08-27T07:20:22.862Z,77.48
2018-08-27T07:21:03.302Z,78.44
2018-08-27T07:21:43.763Z,79.11
2018-08-27T07:22:24.355Z,79.31
2018-08-27T07:23:04.780Z,79.98
2018-08-27T07:23:45.239Z,81.91
2018-08-27T07:24:25.766Z,81.62
2018-08-27T07:25:06.218Z,81.43
2018-08-27T07:25:46.702Z,80.51
2018-08-27T07:26:27.206Z,78.77
2018-08-27T07:27:07.744Z,77.71
2018-08-27T07:27:48.232Z,79.25
2018-08-27T07:28:28.693Z,78.48
2018-08-27T07:29:09.221Z,78.48
2018-08-27T07:29:49.685Z,76.75
2018-08-27T07:30:30.207Z,78.86
2018-08-27T07:31:10.628Z,76.84
2018-08-27T07:31:51.164Z,76.36
2018-08-27T07:32:31.671Z,73.66
2018-08-27T07:33:12.176Z,76.93
2018-08-27T07:33:52.683Z,78.38
2018-08-27T07:34:33.180Z,77.38
2018-08-27T07:35:13.666Z,78.54
2018-08-27T07:35:54.211Z,79.16
2018-08-27T07:36:34.762Z,79.25
2018-08-27T07:37:15.216Z,77.67
2018-08-27T07:37:55.743Z,77.19
2018-08-27T07:38:36.227Z,77.51
2018-08-27T07:39:16.741Z,77.33
2018-08-27T07:39:57.237Z,76.51
2018-08-27T07:40:37.768Z,76.84
2018-08-27T07:41:18.320Z,77.38
2018-08-27T07:41:58.825Z,76.42
2018-08-27T07:42:39.398Z,75.78
2018-08-27T07:43:19.887Z,76.93
2018-08-27T07:44:00.345Z,78.44
2018-08-27T07:44:40.809Z,76.55
2018-08-27T07:45:21.306Z,77.9
2018-08-27T07:46:01.838Z,77.71
2018-08-27T07:46:42.327Z,74.2
2018-08-27T07:47:22.816Z,75.88
2018-08-27T07:48:03.349Z,72.6
2018-08-27T07:48:43.754Z,72.79
2018-08-27T07:49:24.284Z,71.64
2018-08-27T07:50:04.772Z,72.69
2018-08-27T07:50:45.357Z,73.27
2018-08-27T07:51:25.920Z,72.12
2018-08-27T07:52:06.384Z,72.6
2018-08-27T07:52:46.827Z,70.96
2018-08-27T07:53:27.276Z,71.44
2018-08-27T07:54:07.758Z,70.76
2018-08-27T07:54:48.277Z,68.65
2018-08-27T07:55:28.794Z,67.91
2018-08-27T07:56:09.285Z,68.59
2018-08-27T07:56:49.801Z,69.8
2018-08-27T07:57:30.280Z,69.32
2018-08-27T07:58:10.796Z,70
2018-08-27T07:58:51.265Z,67.49
2018-08-27T07:59:31.804Z,66.82
2018-08-27T08:00:12.272Z,64.72
2018-08-27T08:00:52.799Z,66.85
2018-08-27T08:01:33.325Z,71.58
2018-08-27T08:02:13.819Z,73.5
2018-08-27T08:02:54.385Z,71.38
2018-08-27T08:03:34.895Z,70.03
2018-08-27T08:04:15.352Z,73.6
2018-08-27T08:04:55.845Z,75.05
2018-08-27T08:05:36.316Z,75.53
2018-08-27T08:06:16.820Z,74.66
2018-08-27T08:06:57.375Z,69.26
2018-08-27T08:07:37.860Z,65.11
2018-08-27T08:08:18.320Z,70.22
2018-08-27T08:08:58.845Z,72.44
2018-08-27T08:09:39.327Z,71.77
2018-08-27T08:10:19.825Z,68.77
2018-08-27T08:11:00.313Z,70.13
2018-08-27T08:11:41.044Z,75.57
2018-08-27T08:12:21.544Z,75.47
2018-08-27T08:13:02.095Z,74.79
2018-08-27T08:13:42.551Z,75.37
2018-08-27T08:14:23.092Z,67.27
2018-08-27T08:15:03.616Z,66.66
2018-08-27T08:15:44.087Z,66.94
2018-08-27T08:16:24.601Z,68.01
2018-08-27T08:17:05.051Z,69.74
2018-08-27T08:17:45.543Z,70.13
2018-08-27T08:18:26.040Z,70.9
2018-08-27T08:19:06.633Z,71.48
2018-08-27T08:19:47.085Z,74.08
2018-08-27T08:20:27.685Z,73.15
2018-08-27T08:21:08.157Z,68.81
2018-08-27T08:21:48.669Z,73.15
2018-08-27T08:22:29.157Z,72.48
2018-08-27T08:23:09.609Z,73.44
2018-08-27T08:23:50.257Z,73.44
2018-08-27T08:24:30.770Z,74.89
2018-08-27T08:25:11.280Z,76.72
2018-08-27T08:25:51.803Z,76.92
2018-08-27T08:26:32.341Z,73.25
2018-08-27T08:27:12.844Z,71.8
2018-08-27T08:27:53.545Z,69.39
2018-08-27T08:28:34.041Z,66.69
2018-08-27T08:29:14.520Z,63.02
2018-08-27T08:29:55.148Z,60.99
2018-08-27T08:30:35.620Z,62.82
2018-08-27T08:31:16.161Z,69.97
2018-08-27T08:31:56.660Z,73.35
2018-08-27T08:32:37.167Z,73.25
2018-08-27T08:33:17.779Z,71.51
2018-08-27T08:33:58.173Z,66.49
2018-08-27T08:34:38.682Z,67.36
2018-08-27T08:35:19.170Z,69.52
2018-08-27T08:35:59.681Z,69.58
2018-08-27T08:36:40.193Z,70.48
2018-08-27T08:37:20.715Z,69.29
2018-08-27T08:38:01.213Z,68.62
2018-08-27T08:38:41.726Z,68.13
2018-08-27T08:39:22.286Z,66.01
2018-08-27T08:40:02.866Z,67.07
2018-08-27T08:40:43.281Z,68.13
2018-08-27T08:41:23.749Z,65.34
2018-08-27T08:42:04.277Z,65.24
2018-08-27T08:42:44.738Z,68.04
2018-08-27T08:43:25.248Z,65.72
2018-08-27T08:44:05.702Z,64.95
2018-08-27T08:44:46.196Z,63.5